createdAt,value
2018-09-12T00:00:48.183Z,1016.44
2018-09-12T00:01:48.165Z,1016.42
2018-09-12T00:02:48.201Z,1016.47
2018-09-12T00:03:48.150Z,1016.39
2018-09-12T00:04:48.125Z,1016.45
2018-09-12T00:05:48.134Z,1016.47
2018-09-12T00:06:48.109Z,1016.49
2018-09-12T00:07:48.144Z,1016.48
2018-09-12T00:08:48.104Z,1016.43
2018-09-12T00:09:48.077Z,1016.39
2018-09-12T00:10:48.061Z,1016.44
2018-09-12T00:11:48.051Z,1016.46
2018-09-12T00:12:48.069Z,1016.46
2018-09-12T00:13:48.071Z,1016.39
2018-09-12T00:14:48.034Z,1016.42
2018-09-12T00:15:48.009Z,1016.48
2018-09-12T00:16:47.993Z,1016.44
2018-09-12T00:17:47.996Z,1016.43
2018-09-12T00:18:48.026Z,1016.43
2018-09-12T00:19:47.972Z,1016.41
2018-09-12T00:20:47.965Z,1016.41
2018-09-12T00:21:47.950Z,1016.37
2018-09-12T00:22:47.936Z,1016.34
2018-09-12T00:23:47.960Z,1016.36
2018-09-12T00:24:47.918Z,1016.44
2018-09-12T00:25:47.908Z,1016.46
2018-09-12T00:26:47.900Z,1016.42
2018-09-12T00:27:47.880Z,1016.43
2018-09-12T00:28:47.937Z,1016.38
2018-09-12T00:29:47.858Z,1016.39
2018-09-12T00:30:47.852Z,1016.42
2018-09-12T00:31:47.835Z,1016.42
2018-09-12T00:32:47.830Z,1016.43
2018-09-12T00:33:47.846Z,1016.41
2018-09-12T00:34:47.822Z,1016.43
2018-09-12T00:35:47.785Z,1016.49
2018-09-12T00:36:47.782Z,1016.44
2018-09-12T00:37:47.767Z,1016.40
2018-09-12T00:38:47.748Z,1016.40
2018-09-12T00:39:47.769Z,1016.42
2018-09-12T00:40:47.738Z,1016.36
2018-09-12T00:41:47.720Z,1016.37
2018-09-12T00:42:47.724Z,1016.35
2018-09-12T00:43:47.697Z,1016.38
2018-09-12T00:44:47.739Z,1016.39
2018-09-12T00:45:47.677Z,1016.43
2018-09-12T00:46:47.660Z,1016.37
2018-09-12T00:47:47.654Z,1016.37
2018-09-12T00:48:47.637Z,1016.34
2018-09-12T00:49:47.676Z,1016.40
2018-09-12T00:50:47.667Z,1016.41
2018-09-12T00:51:47.615Z,1016.40
2018-09-12T00:52:47.603Z,1016.38
2018-09-12T00:53:47.592Z,1016.38
2018-09-12T00:54:47.591Z,1016.45
2018-09-12T00:55:47.611Z,1016.42
2018-09-12T00:56:47.564Z,1016.38
2018-09-12T00:57:47.550Z,1016.38
2018-09-12T00:58:47.540Z,1016.40
2018-09-12T00:59:47.538Z,1016.41
2018-09-12T01:00:47.566Z,1016.35
2018-09-12T01:01:47.499Z,1016.41
2018-09-12T01:02:47.491Z,1016.42
2018-09-12T01:03:47.490Z,1016.41
2018-09-12T01:04:47.471Z,1016.39
2018-09-12T01:05:47.488Z,1016.42
2018-09-12T01:06:47.445Z,1016.34
2018-09-12T01:07:47.438Z,1016.34
2018-09-12T01:08:47.424Z,1016.39
2018-09-12T01:09:47.416Z,1016.34
2018-09-12T01:10:47.446Z,1016.33
2018-09-12T01:11:47.422Z,1016.38
2018-09-12T01:12:47.386Z,1016.37
2018-09-12T01:13:47.373Z,1016.33
2018-09-12T01:14:47.354Z,1016.35
2018-09-12T01:15:47.349Z,1016.29
2018-09-12T01:16:47.378Z,1016.33
2018-09-12T01:17:47.334Z,1016.25
2018-09-12T01:18:47.306Z,1016.35
2018-09-12T01:19:47.305Z,1016.38
2018-09-12T01:20:47.332Z,1016.37
2018-09-12T01:21:47.273Z,1016.39
2018-09-12T01:22:47.302Z,1016.45
2018-09-12T01:23:47.243Z,1016.37
2018-09-12T01:24:47.237Z,1016.37
2018-09-12T01:25:47.225Z,1016.33
2018-09-12T01:26:47.213Z,1016.44
2018-09-12T01:27:47.240Z,1016.38
2018-09-12T01:28:47.201Z,1016.35
2018-09-12T01:29:47.180Z,1016.37
2018-09-12T01:30:47.172Z,1016.40
2018-09-12T01:31:47.228Z,1016.36
2018-09-12T01:32:47.157Z,1016.41
2018-09-12T01:33:47.166Z,1016.40
2018-09-12T01:34:47.145Z,1016.42
2018-09-12T01:35:47.112Z,1016.39
2018-09-12T01:36:47.099Z,1016.41
2018-09-12T01:37:47.133Z,1016.51
2018-09-12T01:38:47.120Z,1016.47
2018-09-12T01:39:47.080Z,1016.47
2018-09-12T01:40:47.051Z,1016.46
2018-09-12T01:41:47.048Z,1016.41
2018-09-12T01:42:47.031Z,1016.49
2018-09-12T01:43:47.051Z,1016.46
2018-09-12T01:44:47.009Z,1016.47
2018-09-12T01:45:47.020Z,1016.45
2018-09-12T01:46:46.985Z,1016.44
2018-09-12T01:47:46.979Z,1016.35
2018-09-12T01:48:47.027Z,1016.39
2018-09-12T01:49:46.953Z,1016.40
2018-09-12T01:50:46.944Z,1016.39
2018-09-12T01:51:46.945Z,1016.45
2018-09-12T01:52:46.919Z,1016.52
2018-09-12T01:53:46.951Z,1016.50
2018-09-12T01:54:46.909Z,1016.49
2018-09-12T01:55:46.898Z,1016.46
2018-09-12T01:56:46.896Z,1016.54
2018-09-12T01:57:46.874Z,1016.54
2018-09-12T01:58:46.897Z,1016.53
2018-09-12T01:59:46.881Z,1016.51
2018-09-12T02:00:46.848Z,1016.55
2018-09-12T02:01:46.830Z,1016.48
2018-09-12T02:02:46.820Z,1016.55
2018-09-12T02:03:46.806Z,1016.52
2018-09-12T02:04:46.829Z,1016.54
2018-09-12T02:05:46.784Z,1016.46
2018-09-12T02:06:46.772Z,1016.43
2018-09-12T02:07:46.760Z,1016.42
2018-09-12T02:08:46.762Z,1016.41
2018-09-12T02:09:46.784Z,1016.45
2018-09-12T02:10:46.721Z,1016.45
2018-09-12T02:11:46.719Z,1016.49
2018-09-12T02:12:46.709Z,1016.43
2018-09-12T02:13:46.702Z,1016.44
2018-09-12T02:14:46.720Z,1016.44
2018-09-12T02:15:46.669Z,1016.45
2018-09-12T02:16:46.659Z,1016.44
2018-09-12T02:17:46.680Z,1016.46
2018-09-12T02:18:46.672Z,1016.45
2018-09-12T02:19:46.676Z,1016.48
2018-09-12T02:20:46.606Z,1016.43
2018-09-12T02:21:46.610Z,1016.45
2018-09-12T02:22:46.592Z,1016.43
2018-09-12T02:23:46.576Z,1016.42
2018-09-12T02:24:46.604Z,1016.41
2018-09-12T02:25:46.584Z,1016.43
2018-09-12T02:26:46.540Z,1016.42
2018-09-12T02:27:46.573Z,1016.43
2018-09-12T02:28:46.515Z,1016.42
2018-09-12T02:29:46.508Z,1016.42
2018-09-12T02:30:46.491Z,1016.44
2018-09-12T02:31:46.477Z,1016.44
2018-09-12T02:32:46.524Z,1016.46
2018-09-12T02:33:46.458Z,1016.41
2018-09-12T02:34:46.457Z,1016.45
2018-09-12T02:35:46.437Z,1016.46
2018-09-12T02:36:46.429Z,1016.47
2018-09-12T02:37:46.446Z,1016.44
2018-09-12T02:38:46.401Z,1016.46
2018-09-12T02:39:46.390Z,1016.48
2018-09-12T02:40:46.379Z,1016.44
2018-09-12T02:41:46.404Z,1016.43
2018-09-12T02:42:46.356Z,1016.45
2018-09-12T02:43:46.379Z,1016.46
2018-09-12T02:44:46.326Z,1016.48
2018-09-12T02:45:46.356Z,1016.43
2018-09-12T02:46:46.311Z,1016.49
2018-09-12T02:47:46.304Z,1016.51
2018-09-12T02:48:46.294Z,1016.48
2018-09-12T02:49:46.312Z,1016.53
2018-09-12T02:50:46.262Z,1016.50
2018-09-12T02:51:46.288Z,1016.54
2018-09-12T02:52:46.276Z,1016.49
2018-09-12T02:53:46.239Z,1016.42
2018-09-12T02:54:46.215Z,1016.44
2018-09-12T02:55:46.214Z,1016.42
2018-09-12T02:56:46.191Z,1016.48
2018-09-12T02:57:46.229Z,1016.46
2018-09-12T02:58:46.184Z,1016.44
2018-09-12T02:59:46.215Z,1016.44
2018-09-12T03:00:46.162Z,1016.48
2018-09-12T03:01:46.144Z,1016.46
2018-09-12T03:02:46.136Z,1016.43
2018-09-12T03:03:46.140Z,1016.50
2018-09-12T03:04:46.150Z,1016.45
2018-09-12T03:05:46.102Z,1016.51
2018-09-12T03:06:46.092Z,1016.52
2018-09-12T03:07:46.189Z,1016.55
2018-09-12T03:08:46.080Z,1016.59
2018-09-12T03:09:46.058Z,1016.58
2018-09-12T03:10:46.096Z,1016.65
2018-09-12T03:11:46.076Z,1016.61
2018-09-12T03:12:46.028Z,1016.64
2018-09-12T03:13:46.018Z,1016.62
2018-09-12T03:14:46.000Z,1016.61
2018-09-12T03:15:45.994Z,1016.59
2018-09-12T03:16:46.010Z,1016.61
2018-09-12T03:17:45.969Z,1016.59
2018-09-12T03:18:45.959Z,1016.51
2018-09-12T03:19:45.944Z,1016.57
2018-09-12T03:20:46.058Z,1016.53
2018-09-12T03:21:45.967Z,1016.42
2018-09-12T03:22:45.947Z,1016.43
2018-09-12T03:23:45.896Z,1016.42
2018-09-12T03:24:45.888Z,1016.34
2018-09-12T03:25:45.888Z,1016.36
2018-09-12T03:26:45.861Z,1016.36
2018-09-12T03:27:45.881Z,1016.31
2018-09-12T03:28:45.847Z,1016.31
2018-09-12T03:29:45.826Z,1016.38
2018-09-12T03:30:45.856Z,1016.30
2018-09-12T03:31:45.802Z,1016.33
2018-09-12T03:32:45.830Z,1016.40
2018-09-12T03:33:45.779Z,1016.35
2018-09-12T03:34:45.772Z,1016.37
2018-09-12T03:35:45.761Z,1016.35
2018-09-12T03:36:45.774Z,1016.36
2018-09-12T03:37:45.734Z,1016.27
2018-09-12T03:38:45.725Z,1016.36
2018-09-12T03:39:45.709Z,1016.25
2018-09-12T03:40:45.705Z,1016.25
2018-09-12T03:41:45.744Z,1016.15
2018-09-12T03:42:45.686Z,1016.17
2018-09-12T03:43:45.664Z,1016.13
2018-09-12T03:44:45.665Z,1016.19
2018-09-12T03:45:45.642Z,1016.25
2018-09-12T03:46:45.661Z,1016.20
2018-09-12T03:47:45.624Z,1016.25
2018-09-12T03:48:45.650Z,1016.19
2018-09-12T03:49:45.606Z,1016.24
2018-09-12T03:50:45.597Z,1016.22
2018-09-12T03:51:45.571Z,1016.21
2018-09-12T03:52:45.565Z,1016.23
2018-09-12T03:53:45.592Z,1016.20
2018-09-12T03:54:45.534Z,1016.18
2018-09-12T03:55:45.535Z,1016.17
2018-09-12T03:56:45.542Z,1016.10
2018-09-12T03:57:45.515Z,1016.11
2018-09-12T03:58:45.526Z,1016.07
2018-09-12T03:59:45.490Z,1016.04
2018-09-12T04:00:45.471Z,1016.02
2018-09-12T04:01:45.476Z,1016.02
2018-09-12T04:02:45.549Z,1016.05
2018-09-12T04:03:45.448Z,1016.10
2018-09-12T04:04:45.474Z,1016.10
2018-09-12T04:05:45.426Z,1016.07
2018-09-12T04:06:45.426Z,1016.08
2018-09-12T04:07:45.411Z,1016.11
2018-09-12T04:08:45.392Z,1016.05
2018-09-12T04:09:45.432Z,1016.08
2018-09-12T04:10:45.370Z,1016.06
2018-09-12T04:11:45.358Z,1016.11
2018-09-12T04:12:45.352Z,1016.15
2018-09-12T04:13:45.338Z,1016.14
2018-09-12T04:14:45.366Z,1016.12
2018-09-12T04:15:45.309Z,1016.17
2018-09-12T04:16:45.370Z,1016.20
2018-09-12T04:17:45.295Z,1016.16
2018-09-12T04:18:45.292Z,1016.24
2018-09-12T04:19:45.306Z,1016.27
2018-09-12T04:20:45.257Z,1016.28
2018-09-12T04:21:45.304Z,1016.30
2018-09-12T04:22:45.247Z,1016.33
2018-09-12T04:23:45.221Z,1016.31
2018-09-12T04:24:45.225Z,1016.32
2018-09-12T04:25:45.201Z,1016.24
2018-09-12T04:26:45.246Z,1016.29
2018-09-12T04:27:45.179Z,1016.30
2018-09-12T04:28:45.205Z,1016.31
2018-09-12T04:29:45.169Z,1016.25
2018-09-12T04:30:45.165Z,1016.25
2018-09-12T04:31:45.206Z,1016.20
2018-09-12T04:32:45.123Z,1016.15
2018-09-12T04:33:45.109Z,1016.14
2018-09-12T04:34:45.093Z,1016.16
2018-09-12T04:35:45.094Z,1016.16
2018-09-12T04:36:45.110Z,1016.17
2018-09-12T04:37:45.060Z,1016.18
2018-09-12T04:38:45.078Z,1016.15
2018-09-12T04:39:45.041Z,1016.18
2018-09-12T04:40:45.030Z,1016.19
2018-09-12T04:41:45.022Z,1016.15
2018-09-12T04:42:45.049Z,1016.15
2018-09-12T04:43:44.989Z,1016.17
2018-09-12T04:44:44.992Z,1016.22
2018-09-12T04:45:44.985Z,1016.21
2018-09-12T04:46:44.960Z,1016.20
2018-09-12T04:47:44.980Z,1016.26
2018-09-12T04:48:44.938Z,1016.27
2018-09-12T04:49:44.936Z,1016.36
2018-09-12T04:50:44.923Z,1016.35
2018-09-12T04:51:44.913Z,1016.33
2018-09-12T04:52:44.940Z,1016.30
2018-09-12T04:53:44.898Z,1016.33
2018-09-12T04:54:44.888Z,1016.36
2018-09-12T04:55:44.866Z,1016.32
2018-09-12T04:56:44.864Z,1016.36
2018-09-12T04:57:44.880Z,1016.36
2018-09-12T04:58:44.842Z,1016.37
2018-09-12T04:59:44.886Z,1016.38
2018-09-12T05:00:44.819Z,1016.36
2018-09-12T05:01:44.807Z,1016.31
2018-09-12T05:02:44.824Z,1016.28
2018-09-12T05:03:44.784Z,1016.31
2018-09-12T05:04:44.769Z,1016.37
2018-09-12T05:05:44.752Z,1016.33
2018-09-12T05:06:44.793Z,1016.34
2018-09-12T05:07:44.725Z,1016.34
2018-09-12T05:08:44.726Z,1016.28
2018-09-12T05:09:44.707Z,1016.33
2018-09-12T05:10:44.699Z,1016.31
2018-09-12T05:11:44.720Z,1016.33
2018-09-12T05:12:44.670Z,1016.33
2018-09-12T05:13:44.670Z,1016.37
2018-09-12T05:14:44.702Z,1016.39
2018-09-12T05:15:44.642Z,1016.40
2018-09-12T05:16:44.781Z,1016.35
2018-09-12T05:17:44.616Z,1016.41
2018-09-12T05:18:44.603Z,1016.45
2018-09-12T05:19:44.590Z,1016.48
2018-09-12T05:20:44.583Z,1016.42
2018-09-12T05:21:44.608Z,1016.45
2018-09-12T05:22:44.561Z,1016.51
2018-09-12T05:23:44.591Z,1016.44
2018-09-12T05:24:44.538Z,1016.49
2018-09-12T05:25:44.572Z,1016.47
2018-09-12T05:26:44.526Z,1016.47
2018-09-12T05:27:44.521Z,1016.48
2018-09-12T05:28:44.497Z,1016.46
2018-09-12T05:29:44.485Z,1016.46
2018-09-12T05:30:44.501Z,1016.51
2018-09-12T05:31:44.460Z,1016.48
2018-09-12T05:32:44.455Z,1016.50
2018-09-12T05:33:44.457Z,1016.51
2018-09-12T05:34:44.430Z,1016.44
2018-09-12T05:35:44.463Z,1016.45
2018-09-12T05:36:44.440Z,1016.50
2018-09-12T05:37:44.411Z,1016.51
2018-09-12T05:38:44.396Z,1016.53
2018-09-12T05:39:44.380Z,1016.59
2018-09-12T05:40:44.368Z,1016.57
2018-09-12T05:41:44.389Z,1016.52
2018-09-12T05:42:44.341Z,1016.53
2018-09-12T05:43:44.370Z,1016.50
2018-09-12T05:44:44.335Z,1016.46
2018-09-12T05:45:44.338Z,1016.43
2018-09-12T05:46:44.306Z,1016.44
2018-09-12T05:47:44.306Z,1016.44
2018-09-12T05:48:44.334Z,1016.42
2018-09-12T05:49:44.266Z,1016.39
2018-09-12T05:50:44.261Z,1016.32
2018-09-12T05:51:44.294Z,1016.34
2018-09-12T05:52:44.244Z,1016.36
2018-09-12T05:53:44.219Z,1016.36
2018-09-12T05:54:44.214Z,1016.34
2018-09-12T05:55:44.208Z,1016.35
2018-09-12T05:56:44.224Z,1016.34
2018-09-12T05:57:44.182Z,1016.36
2018-09-12T05:58:44.210Z,1016.30
2018-09-12T05:59:44.159Z,1016.26
2018-09-12T06:00:44.145Z,1016.26
2018-09-12T06:01:44.166Z,1016.24
2018-09-12T06:02:44.128Z,1016.21
2018-09-12T06:03:44.158Z,1016.22
2018-09-12T06:04:44.149Z,1016.19
2018-09-12T06:05:44.090Z,1016.17
2018-09-12T06:06:44.154Z,1016.27
2018-09-12T06:07:44.075Z,1016.31
2018-09-12T06:08:44.125Z,1016.27
2018-09-12T06:09:44.038Z,1016.23
2018-09-12T06:10:44.025Z,1016.22
2018-09-12T06:11:44.030Z,1016.20
2018-09-12T06:12:44.008Z,1016.23
2018-09-12T06:13:44.059Z,1016.22
2018-09-12T06:14:43.984Z,1016.24
2018-09-12T06:15:43.970Z,1016.36
2018-09-12T06:16:43.966Z,1016.37
2018-09-12T06:17:43.983Z,1016.39
2018-09-12T06:18:43.941Z,1016.35
2018-09-12T06:19:43.931Z,1016.39
2018-09-12T06:20:43.958Z,1016.44
2018-09-12T06:21:43.912Z,1016.39
2018-09-12T06:22:43.899Z,1016.37
2018-09-12T06:23:43.891Z,1016.40
2018-09-12T06:24:43.875Z,1016.48
2018-09-12T06:25:43.903Z,1016.51
2018-09-12T06:26:43.849Z,1016.58
2018-09-12T06:27:43.839Z,1016.57
2018-09-12T06:28:43.830Z,1016.60
2018-09-12T06:29:43.812Z,1016.64
2018-09-12T06:30:43.899Z,1016.70
2018-09-12T06:31:43.812Z,1016.70
2018-09-12T06:32:43.816Z,1016.70
2018-09-12T06:33:43.792Z,1016.69
2018-09-12T06:34:43.758Z,1016.66
2018-09-12T06:35:43.749Z,1016.69
2018-09-12T06:36:43.748Z,1016.64
2018-09-12T06:37:43.788Z,1016.69
2018-09-12T06:38:43.768Z,1016.67
2018-09-12T06:39:43.704Z,1016.66
2018-09-12T06:40:43.762Z,1016.69
2018-09-12T06:41:43.730Z,1016.72
2018-09-12T06:42:43.712Z,1016.74
2018-09-12T06:43:43.672Z,1016.76
2018-09-12T06:44:43.807Z,1016.77
2018-09-12T06:45:43.676Z,1016.76
2018-09-12T06:46:43.640Z,1016.75
2018-09-12T06:47:43.619Z,1016.73
2018-09-12T06:48:43.646Z,1016.78
2018-09-12T06:49:43.596Z,1016.79
2018-09-12T06:50:43.592Z,1016.73
2018-09-12T06:51:43.592Z,1016.73
2018-09-12T06:52:43.561Z,1016.71
2018-09-12T06:53:43.598Z,1016.76
2018-09-12T06:54:43.560Z,1016.68
2018-09-12T06:55:43.536Z,1016.69
2018-09-12T06:56:43.517Z,1016.76
2018-09-12T06:57:43.516Z,1016.71
2018-09-12T06:58:43.542Z,1016.81
2018-09-12T06:59:43.487Z,1016.84
2018-09-12T07:00:43.604Z,1016.85
2018-09-12T07:01:43.502Z,1016.88
2018-09-12T07:02:43.452Z,1016.90
2018-09-12T07:03:43.440Z,1016.91
2018-09-12T07:04:43.464Z,1017.01
2018-09-12T07:05:43.450Z,1017.01
2018-09-12T07:06:43.409Z,1017.00
2018-09-12T07:07:43.432Z,1016.97
2018-09-12T07:08:43.392Z,1016.90
2018-09-12T07:09:43.372Z,1016.85
2018-09-12T07:10:43.364Z,1016.83
2018-09-12T07:11:43.382Z,1016.91
2018-09-12T07:12:43.345Z,1016.94
2018-09-12T07:13:43.315Z,1016.90
2018-09-12T07:14:43.351Z,1016.80
2018-09-12T07:15:43.303Z,1016.76
2018-09-12T07:16:43.279Z,1016.75
2018-09-12T07:17:43.283Z,1016.79
2018-09-12T07:18:43.264Z,1016.79
2018-09-12T07:19:43.286Z,1016.71
2018-09-12T07:20:43.241Z,1016.72
2018-09-12T07:21:43.234Z,1016.77
2018-09-12T07:22:43.215Z,1016.79
2018-09-12T07:23:43.205Z,1016.75
2018-09-12T07:24:43.276Z,1016.73
2018-09-12T07:25:43.189Z,1016.73
2018-09-12T07:26:43.169Z,1016.82
2018-09-12T07:27:43.228Z,1016.80
2018-09-12T07:28:43.149Z,1016.76
2018-09-12T07:29:43.173Z,1016.77
2018-09-12T07:30:43.135Z,1016.70
2018-09-12T07:31:43.116Z,1016.59
2018-09-12T07:32:43.107Z,1016.59
2018-09-12T07:33:43.092Z,1016.58
2018-09-12T07:34:43.121Z,1016.58
2018-09-12T07:35:43.067Z,1016.60
2018-09-12T07:36:43.061Z,1016.61
2018-09-12T07:37:43.051Z,1016.59
2018-09-12T07:38:43.040Z,1016.64
2018-09-12T07:39:43.055Z,1016.70
2018-09-12T07:40:43.015Z,1016.67
2018-09-12T07:41:43.053Z,1016.71
2018-09-12T07:42:42.999Z,1016.73
2018-09-12T07:43:42.979Z,1016.74
2018-09-12T07:44:43.015Z,1016.73
2018-09-12T07:45:42.966Z,1016.75
2018-09-12T07:46:42.962Z,1016.72
2018-09-12T07:47:42.958Z,1016.73
2018-09-12T07:48:42.932Z,1016.68
2018-09-12T07:49:42.966Z,1016.60
2018-09-12T07:50:42.942Z,1016.63
2018-09-12T07:51:42.901Z,1016.63
2018-09-12T07:52:42.894Z,1016.67
2018-09-12T07:53:42.878Z,1016.70
2018-09-12T07:54:42.864Z,1016.82
2018-09-12T07:55:42.896Z,1016.78
2018-09-12T07:56:42.865Z,1016.82
2018-09-12T07:57:42.876Z,1016.81
2018-09-12T07:58:42.820Z,1016.75
2018-09-12T07:59:42.815Z,1016.80
2018-09-12T08:00:42.839Z,1016.82
2018-09-12T08:01:42.799Z,1016.83
2018-09-12T08:02:42.805Z,1016.91
2018-09-12T08:03:42.765Z,1016.94
2018-09-12T08:04:42.755Z,1017.04
2018-09-12T08:05:42.776Z,1017.04
2018-09-12T08:06:42.732Z,1017.04
2018-09-12T08:07:42.739Z,1017.09
2018-09-12T08:08:42.711Z,1017.05
2018-09-12T08:09:42.703Z,1017.06
2018-09-12T08:10:42.725Z,1017.10
2018-09-12T08:11:42.710Z,1017.11
2018-09-12T08:12:42.667Z,1017.09
2018-09-12T08:13:42.658Z,1017.08
2018-09-12T08:14:42.647Z,1017.11
2018-09-12T08:15:42.938Z,1017.10
2018-09-12T08:16:42.652Z,1017.08
2018-09-12T08:17:42.612Z,1017.13
2018-09-12T08:18:42.607Z,1017.13
2018-09-12T08:19:42.583Z,1017.20
2018-09-12T08:20:42.566Z,1017.23
2018-09-12T08:21:42.591Z,1017.13
2018-09-12T08:22:42.550Z,1017.17
2018-09-12T08:23:42.532Z,1017.18
2018-09-12T08:24:42.567Z,1017.23
2018-09-12T08:25:42.520Z,1017.28
2018-09-12T08:26:42.557Z,1017.22
2018-09-12T08:27:42.497Z,1017.25
2018-09-12T08:28:42.485Z,1017.28
2018-09-12T08:29:42.508Z,1017.26
2018-09-12T08:30:42.461Z,1017.27
2018-09-12T08:31:42.480Z,1017.24
2018-09-12T08:32:42.438Z,1017.32
2018-09-12T08:33:42.430Z,1017.30
2018-09-12T08:34:42.454Z,1017.29
2018-09-12T08:35:42.394Z,1017.34
2018-09-12T08:36:42.444Z,1017.40
2018-09-12T08:37:42.384Z,1017.29
2018-09-12T08:38:42.362Z,1017.34
2018-09-12T08:39:42.357Z,1017.30
2018-09-12T08:40:42.341Z,1017.32
2018-09-12T08:41:42.366Z,1017.41
2018-09-12T08:42:42.387Z,1017.45
2018-09-12T08:43:42.308Z,1017.40
2018-09-12T08:44:42.300Z,1017.40
2018-09-12T08:45:42.305Z,1017.40
2018-09-12T08:46:42.320Z,1017.39
2018-09-12T08:47:42.279Z,1017.37
2018-09-12T08:48:42.289Z,1017.37
2018-09-12T08:49:42.248Z,1017.29
2018-09-12T08:50:42.246Z,1017.40
2018-09-12T08:51:42.266Z,1017.31
2018-09-12T08:52:42.222Z,1017.30
2018-09-12T08:53:42.216Z,1017.29
2018-09-12T08:54:42.230Z,1017.32
2018-09-12T08:55:42.184Z,1017.26
2018-09-12T08:56:42.244Z,1017.16
2018-09-12T08:57:42.160Z,1017.23
2018-09-12T08:58:42.155Z,1017.25
2018-09-12T08:59:42.176Z,1017.24
2018-09-12T09:00:42.126Z,1017.27
2018-09-12T09:01:42.276Z,1017.31
2018-09-12T09:02:42.152Z,1017.31
2018-09-12T09:03:42.100Z,1017.35
2018-09-12T09:04:42.094Z,1017.37
2018-09-12T09:05:42.067Z,1017.38
2018-09-12T09:06:42.061Z,1017.33
2018-09-12T09:07:42.089Z,1017.30
2018-09-12T09:08:42.040Z,1017.34
2018-09-12T09:09:42.026Z,1017.29
2018-09-12T09:10:42.024Z,1017.40
2018-09-12T09:11:41.999Z,1017.46
2018-09-12T09:12:42.017Z,1017.47
2018-09-12T09:13:41.979Z,1017.39
2018-09-12T09:14:41.999Z,1017.42
2018-09-12T09:15:41.990Z,1017.46
2018-09-12T09:16:41.943Z,1017.50
2018-09-12T09:17:41.935Z,1017.59
2018-09-12T09:18:41.926Z,1017.67
2018-09-12T09:19:41.913Z,1017.58
2018-09-12T09:20:41.946Z,1017.52
2018-09-12T09:21:41.898Z,1017.42
2018-09-12T09:22:41.884Z,1017.40
2018-09-12T09:23:41.910Z,1017.39
2018-09-12T09:24:41.864Z,1017.39
2018-09-12T09:25:41.891Z,1017.46
2018-09-12T09:26:41.842Z,1017.56
2018-09-12T09:27:41.824Z,1017.47
2018-09-12T09:28:41.820Z,1017.48
2018-09-12T09:29:41.804Z,1017.55
2018-09-12T09:30:41.832Z,1017.50
2018-09-12T09:31:41.784Z,1017.49
2018-09-12T09:32:41.792Z,1017.50
2018-09-12T09:33:41.770Z,1017.52
2018-09-12T09:34:41.748Z,1017.52
2018-09-12T09:35:42.151Z,1017.50
2018-09-12T09:36:41.728Z,1017.51
2018-09-12T09:37:41.720Z,1017.45
2018-09-12T09:38:41.713Z,1017.45
2018-09-12T09:39:41.703Z,1017.38
2018-09-12T09:40:41.724Z,1017.39
2018-09-12T09:41:41.670Z,1017.37
2018-09-12T09:42:41.686Z,1017.39
2018-09-12T09:43:41.648Z,1017.45
2018-09-12T09:44:41.650Z,1017.43
2018-09-12T09:45:41.686Z,1017.39
2018-09-12T09:46:41.620Z,1017.42
2018-09-12T09:47:41.602Z,1017.46
2018-09-12T09:48:41.596Z,1017.42
2018-09-12T09:49:41.586Z,1017.54
2018-09-12T09:50:41.611Z,1017.55
2018-09-12T09:51:41.563Z,1017.51
2018-09-12T09:52:41.550Z,1017.51
2018-09-12T09:53:41.535Z,1017.50
2018-09-12T09:54:41.579Z,1017.47
2018-09-12T09:55:41.553Z,1017.52
2018-09-12T09:56:41.499Z,1017.56
2018-09-12T09:57:41.488Z,1017.58
2018-09-12T09:58:41.479Z,1017.55
2018-09-12T09:59:41.457Z,1017.60
2018-09-12T10:00:41.486Z,1017.64
2018-09-12T10:01:41.485Z,1017.70
2018-09-12T10:02:41.427Z,1017.72
2018-09-12T10:03:41.421Z,1017.81
2018-09-12T10:04:41.401Z,1017.77
2018-09-12T10:05:41.403Z,1017.74
2018-09-12T10:06:41.417Z,1017.67
2018-09-12T10:07:41.392Z,1017.75
2018-09-12T10:08:41.395Z,1017.76
2018-09-12T10:09:41.349Z,1017.77
2018-09-12T10:10:41.375Z,1017.79
2018-09-12T10:11:41.342Z,1017.83
2018-09-12T10:12:41.321Z,1017.87
2018-09-12T10:13:41.321Z,1017.84
2018-09-12T10:14:41.300Z,1017.85
2018-09-12T10:15:41.349Z,1017.86
2018-09-12T10:16:41.271Z,1017.88
2018-09-12T10:17:41.257Z,1017.89
2018-09-12T10:18:41.253Z,1017.95
2018-09-12T10:19:41.251Z,1017.95
2018-09-12T10:20:41.281Z,1017.96
2018-09-12T10:21:41.216Z,1017.92
2018-09-12T10:22:41.209Z,1017.91
2018-09-12T10:23:41.192Z,1017.94
2018-09-12T10:24:41.180Z,1017.97
2018-09-12T10:25:41.216Z,1017.95
2018-09-12T10:26:41.171Z,1017.99
2018-09-12T10:27:41.156Z,1017.99
2018-09-12T10:28:41.153Z,1018.01
2018-09-12T10:29:41.170Z,1017.98
2018-09-12T10:30:41.143Z,1017.97
2018-09-12T10:31:41.169Z,1017.94
2018-09-12T10:32:41.139Z,1017.85
2018-09-12T10:33:41.095Z,1017.86
2018-09-12T10:34:41.089Z,1017.95
2018-09-12T10:35:41.071Z,1017.95
2018-09-12T10:36:41.098Z,1017.95
2018-09-12T10:37:41.085Z,1017.91
2018-09-12T10:38:41.035Z,1017.91
2018-09-12T10:39:41.061Z,1017.94
2018-09-12T10:40:41.013Z,1017.99
2018-09-12T10:41:41.011Z,1018.02
2018-09-12T10:42:41.016Z,1018.05
2018-09-12T10:43:40.977Z,1018.10
2018-09-12T10:44:40.963Z,1018.09
2018-09-12T10:45:40.959Z,1018.08
2018-09-12T10:46:40.943Z,1018.22
2018-09-12T10:47:40.967Z,1018.24
2018-09-12T10:48:40.927Z,1018.25
2018-09-12T10:49:40.911Z,1018.29
2018-09-12T10:50:40.900Z,1018.30
2018-09-12T10:51:40.892Z,1018.29
2018-09-12T10:52:40.909Z,1018.27
2018-09-12T10:53:40.876Z,1018.29
2018-09-12T10:54:40.853Z,1018.29
2018-09-12T10:55:40.847Z,1018.31
2018-09-12T10:56:40.827Z,1018.31
2018-09-12T10:57:40.846Z,1018.30
2018-09-12T10:58:40.807Z,1018.27
2018-09-12T10:59:40.825Z,1018.24
2018-09-12T11:00:40.784Z,1018.32
2018-09-12T11:01:40.762Z,1018.39
2018-09-12T11:02:40.750Z,1018.38
2018-09-12T11:03:40.751Z,1018.42
2018-09-12T11:04:40.787Z,1018.35
2018-09-12T11:05:40.724Z,1018.32
2018-09-12T11:06:40.717Z,1018.34
2018-09-12T11:07:40.704Z,1018.37
2018-09-12T11:08:40.698Z,1018.38
2018-09-12T11:09:40.715Z,1018.43
2018-09-12T11:10:40.701Z,1018.42
2018-09-12T11:11:40.649Z,1018.42
2018-09-12T11:12:40.643Z,1018.44
2018-09-12T11:13:40.635Z,1018.55
2018-09-12T11:14:40.656Z,1018.57
2018-09-12T11:15:40.615Z,1018.61
2018-09-12T11:16:40.599Z,1018.57
2018-09-12T11:17:40.591Z,1018.53
2018-09-12T11:18:40.622Z,1018.57
2018-09-12T11:19:40.614Z,1018.57
2018-09-12T11:20:40.561Z,1018.58
2018-09-12T11:21:40.550Z,1018.55
2018-09-12T11:22:40.534Z,1018.53
2018-09-12T11:23:40.524Z,1018.50
2018-09-12T11:24:40.556Z,1018.45
2018-09-12T11:25:40.504Z,1018.44
2018-09-12T11:26:40.491Z,1018.41
2018-09-12T11:27:40.481Z,1018.37
2018-09-12T11:28:40.557Z,1018.37
2018-09-12T11:29:40.509Z,1018.50
2018-09-12T11:30:40.549Z,1018.47
2018-09-12T11:31:40.447Z,1018.46
2018-09-12T11:32:40.435Z,1018.53
2018-09-12T11:33:40.429Z,1018.46
2018-09-12T11:34:41.301Z,1018.55
2018-09-12T11:35:40.416Z,1018.57
2018-09-12T11:36:40.383Z,1018.61
2018-09-12T11:37:40.621Z,1018.62
2018-09-12T11:38:40.623Z,1018.69
2018-09-12T11:39:40.389Z,1018.65
2018-09-12T11:40:40.422Z,1018.62
2018-09-12T11:41:40.616Z,1018.62
2018-09-12T11:42:40.417Z,1018.62
2018-09-12T11:43:40.394Z,1018.71
2018-09-12T11:44:40.351Z,1018.71
2018-09-12T11:45:40.713Z,1018.70
2018-09-12T11:46:40.735Z,1018.69
2018-09-12T11:47:40.326Z,1018.67
2018-09-12T11:48:40.380Z,1018.67
2018-09-12T11:49:40.355Z,1018.72
2018-09-12T11:50:40.239Z,1018.78
2018-09-12T11:51:40.833Z,1018.75
2018-09-12T11:52:40.630Z,1018.75
2018-09-12T11:53:40.622Z,1018.77
2018-09-12T11:54:40.186Z,1018.79
2018-09-12T11:55:40.599Z,1018.76
2018-09-12T11:56:40.531Z,1018.81
2018-09-12T11:57:40.589Z,1018.79
2018-09-12T11:58:40.383Z,1018.79
2018-09-12T11:59:40.262Z,1018.85
2018-09-12T12:00:40.127Z,1018.78
2018-09-12T12:01:40.136Z,1018.79
2018-09-12T12:02:40.086Z,1018.75
2018-09-12T12:03:40.072Z,1018.72
2018-09-12T12:04:40.065Z,1018.73
2018-09-12T12:05:40.052Z,1018.73